Time;durP1;ratioP1;P1;durP2;ratioP2;P2;SDS_P1;SDS_P2;PMS_P1;PMS_P2;Temp;Humidity;BMP_temperature;BMP_pressure;BME280_temperature;BME280_humidity;BME280_pressure;Samples;Min_cycle;Max_cycle;Signal;HPM_P1;HPM_P2
2022/12/29 00:02:05;;;;;;;7.93;3.30;;;12.40;99.90;;;;;;5069319;28;20064;-74
2022/12/29 00:04:31;;;;;;;10.95;5.35;;;12.40;99.90;;;;;;5091381;28;20031;-74
2022/12/29 00:06:57;;;;;;;10.27;3.97;;;12.30;99.90;;;;;;5053739;28;20036;-74
2022/12/29 00:09:26;;;;;;;9.05;4.18;;;12.20;99.90;;;;;;5056980;28;20069;-73
2022/12/29 00:11:51;;;;;;;7.35;1.85;;;12.20;99.90;;;;;;5074809;28;20039;-73
2022/12/29 00:17:02;;;;;;;14.75;4.70;;;12.50;99.90;;;;;;5078292;28;20047;-74
2022/12/29 00:36:13;;;;;;;12.27;5.43;;;12.10;99.90;;;;;;5064161;28;20082;-73
2022/12/29 00:44:13;;;;;;;13.27;5.63;;;12.00;99.90;;;;;;5080228;28;20668;-74
2022/12/29 00:46:43;;;;;;;12.63;5.35;;;12.00;99.90;;;;;;5082891;28;20040;-73
2022/12/29 00:51:58;;;;;;;13.55;5.03;;;12.00;99.90;;;;;;5081271;28;20425;-74
2022/12/29 00:54:24;;;;;;;13.25;5.75;;;12.00;99.90;;;;;;5095554;28;20480;-74
2022/12/29 00:56:51;;;;;;;14.38;6.45;;;12.00;99.90;;;;;;5085434;28;20123;-73
2022/12/29 00:59:19;;;;;;;14.15;6.28;;;11.90;99.90;;;;;;5081198;28;20114;-75
2022/12/29 01:01:46;;;;;;;13.30;6.40;;;11.80;99.90;;;;;;5083894;28;20033;-73
2022/12/29 01:04:12;;;;;;;14.50;5.60;;;11.80;99.90;;;;;;5081841;28;20037;-73
2022/12/29 01:06:40;;;;;;;11.90;5.55;;;11.80;99.90;;;;;;5086305;28;20039;-73
2022/12/29 01:11:51;;;;;;;15.23;5.63;;;11.70;99.90;;;;;;5081058;28;20039;-73
2022/12/29 01:14:18;;;;;;;12.35;5.68;;;11.70;99.90;;;;;;5068373;28;20028;-74
2022/12/29 01:16:45;;;;;;;;;;;11.70;99.90;;;;;;5085554;28;20059;-73
2022/12/29 01:19:12;;;;;;;13.93;5.70;;;11.60;99.90;;;;;;5082471;28;19919;-73
2022/12/29 01:21:38;;;;;;;12.57;6.25;;;11.50;99.90;;;;;;5083075;28;20084;-74
2022/12/29 01:24:04;;;;;;;11.55;5.50;;;11.60;99.90;;;;;;5082585;28;20122;-74
2022/12/29 01:26:30;;;;;;;12.10;6.57;;;11.50;99.90;;;;;;5082079;28;20494;-73
2022/12/29 01:28:56;;;;;;;11.77;4.88;;;11.40;99.90;;;;;;5086603;28;20036;-74
2022/12/29 01:31:22;;;;;;;11.90;5.75;;;11.50;99.90;;;;;;5080793;28;20128;-73
2022/12/29 01:33:48;;;;;;;11.48;5.22;;;11.50;99.90;;;;;;5054339;28;20054;-74
2022/12/29 01:36:18;;;;;;;11.52;4.80;;;11.50;99.90;;;;;;5077879;28;20041;-74
2022/12/29 01:38:44;;;;;;;9.23;3.83;;;11.60;99.90;;;;;;5068205;28;20036;-74
2022/12/29 01:41:14;;;;;;;11.73;5.63;;;11.60;99.90;;;;;;5071860;28;20033;-73
2022/12/29 01:43:42;;;;;;;19.50;6.72;;;11.60;99.90;;;;;;5082705;28;20131;-74
2022/12/29 01:46:36;;;;;;;12.55;6.57;;;11.40;99.90;;;;;;5083101;27;20032;-74
2022/12/29 01:49:24;;;;;;;17.35;6.88;;;11.30;99.90;;;;;;5073913;28;20044;-73
2022/12/29 01:52:08;;;;;;;15.95;6.47;;;11.30;99.90;;;;;;5084141;28;20085;-73
2022/12/29 01:54:43;;;;;;;11.63;6.10;;;11.30;99.90;;;;;;5083832;28;20048;-73
2022/12/29 01:57:15;;;;;;;11.20;4.63;;;11.30;99.90;;;;;;5083259;28;20052;-73
2022/12/29 02:00:00;;;;;;;13.23;5.00;;;11.50;99.90;;;;;;5082049;28;20036;-73
2022/12/29 02:02:26;;;;;;;9.20;4.22;;;11.60;99.90;;;;;;5083341;28;20024;-73
2022/12/29 02:04:55;;;;;;;12.48;4.80;;;11.90;99.90;;;;;;5084691;28;20082;-74
2022/12/29 02:07:24;;;;;;;11.30;4.78;;;11.80;99.90;;;;;;5096621;28;20413;-73
2022/12/29 02:09:52;;;;;;;9.82;5.00;;;11.60;99.90;;;;;;5044988;28;20032;-73
2022/12/29 02:12:21;;;;;;;14.13;5.97;;;11.50;99.90;;;;;;5074122;28;20137;-72
2022/12/29 02:14:48;;;;;;;13.05;5.53;;;11.40;99.90;;;;;;5080484;28;20379;-74
2022/12/29 02:17:47;;;;;;;14.95;5.47;;;11.40;99.90;;;;;;5060178;28;20751;-74
2022/12/29 02:20:34;;;;;;;9.85;5.00;;;11.20;99.90;;;;;;5062093;28;20056;-73
2022/12/29 02:23:11;;;;;;;14.70;5.28;;;11.20;99.90;;;;;;5063907;28;20101;-73
2022/12/29 02:25:59;;;;;;;11.88;5.30;;;11.30;99.90;;;;;;5075667;28;20032;-74
2022/12/29 02:29:07;;;;;;;12.63;5.78;;;11.20;99.90;;;;;;5060309;28;20044;-74
2022/12/29 02:32:08;;;;;;;14.30;6.28;;;11.30;99.90;;;;;;5068158;28;20047;-73
2022/12/29 02:34:54;;;;;;;13.25;4.68;;;11.20;99.90;;;;;;5080616;28;20470;-73
2022/12/29 02:37:31;;;;;;;8.93;4.32;;;11.50;99.90;;;;;;5064313;28;20032;-74
2022/12/29 02:40:16;;;;;;;14.75;5.70;;;11.50;99.90;;;;;;5062670;28;20037;-73
2022/12/29 02:42:42;;;;;;;10.30;4.57;;;11.60;99.90;;;;;;5063457;28;20028;-73
2022/12/29 02:45:22;;;;;;;10.18;4.63;;;11.80;99.90;;;;;;5063606;28;20037;-75
2022/12/29 02:48:19;;;;;;;13.07;5.05;;;11.90;99.90;;;;;;5075526;28;20632;-74
2022/12/29 02:51:00;;;;;;;10.80;4.72;;;11.80;99.90;;;;;;5073912;28;20043;-73
2022/12/29 02:56:12;;;;;;;7.43;3.13;;;11.80;99.90;;;;;;5081018;28;20602;-73
2022/12/29 02:58:38;;;;;;;10.18;3.65;;;12.40;99.90;;;;;;5079099;27;20035;-74
2022/12/29 03:01:15;;;;;;;6.72;2.95;;;12.30;99.90;;;;;;5050828;28;20125;-73
2022/12/29 03:04:11;;;;;;;9.02;4.25;;;12.20;99.90;;;;;;5063754;28;20040;-74
2022/12/29 03:06:58;;;;;;;12.20;5.53;;;12.10;99.90;;;;;;5082033;28;20040;-73
2022/12/29 03:09:42;;;;;;;10.25;3.95;;;11.80;99.90;;;;;;5070349;28;20689;-74
2022/12/29 03:12:16;;;;;;;9.20;3.97;;;12.00;99.90;;;;;;5073852;28;20482;-74
2022/12/29 03:17:40;;;;;;;8.57;2.47;;;11.80;99.90;;;;;;5062984;28;20158;-74
2022/12/29 03:20:23;;;;;;;5.60;2.00;;;12.00;99.90;;;;;;5071608;28;20416;-74
2022/12/29 03:22:54;;;;;;;7.45;1.10;;;12.80;99.90;;;;;;5062311;28;20032;-74
2022/12/29 03:25:36;;;;;;;7.88;2.08;;;13.20;99.20;;;;;;5061963;28;20483;-74
2022/12/29 03:28:07;;;;;;;4.20;1.42;;;13.50;98.90;;;;;;5060807;28;20070;-73
2022/12/29 03:30:37;;;;;;;5.00;1.40;;;13.60;98.20;;;;;;5061555;28;20048;-73
2022/12/29 03:33:07;;;;;;;5.45;1.30;;;13.60;97.90;;;;;;5059739;28;20045;-73
2022/12/29 03:35:37;;;;;;;5.82;1.45;;;13.60;98.10;;;;;;5063651;28;20047;-73
2022/12/29 03:38:24;;;;;;;4.68;1.10;;;13.60;97.70;;;;;;5060580;28;20055;-74
2022/12/29 03:40:55;;;;;;;5.05;1.20;;;13.70;98.00;;;;;;5063462;28;20036;-73
2022/12/29 03:43:22;;;;;;;6.65;1.48;;;13.70;97.80;;;;;;5060562;28;20036;-73
2022/12/29 03:45:48;;;;;;;8.88;1.60;;;13.80;97.70;;;;;;5064602;28;20090;-74
2022/12/29 03:48:15;;;;;;;5.25;1.40;;;13.80;97.50;;;;;;5062469;28;20579;-74
2022/12/29 03:50:41;;;;;;;6.25;1.40;;;13.80;97.70;;;;;;5061464;28;20044;-73
2022/12/29 03:53:07;;;;;;;4.32;1.20;;;13.70;97.60;;;;;;5061879;28;20503;-73
2022/12/29 03:55:33;;;;;;;8.45;1.70;;;13.70;97.80;;;;;;5060512;28;20083;-74
2022/12/29 03:57:59;;;;;;;8.23;1.67;;;13.70;97.90;;;;;;5061060;28;20090;-74
2022/12/29 04:00:25;;;;;;;9.30;2.00;;;13.50;98.20;;;;;;5062454;28;20418;-74
2022/12/29 04:02:51;;;;;;;4.85;1.20;;;13.70;97.80;;;;;;5061080;28;20047;-73
2022/12/29 04:05:16;;;;;;;4.20;1.10;;;13.70;97.70;;;;;;5061377;28;20033;-73
2022/12/29 04:07:42;;;;;;;5.57;1.30;;;13.50;97.80;;;;;;5059587;28;20032;-73
2022/12/29 04:10:08;;;;;;;5.95;1.80;;;13.80;97.00;;;;;;5082119;28;20678;-73
2022/12/29 04:12:34;;;;;;;2.92;0.82;;;13.90;97.20;;;;;;5090608;28;20041;-73
2022/12/29 04:15:00;;;;;;;2.92;0.77;;;14.00;96.70;;;;;;5056958;28;20060;-74
2022/12/29 04:17:26;;;;;;;6.15;1.20;;;14.10;96.80;;;;;;5060473;28;20038;-73
2022/12/29 04:20:59;;;;;;;8.25;1.30;;;14.10;96.40;;;;;;5061109;28;20156;-73
2022/12/29 04:22:39;;;;;;;7.93;1.00;;;14.10;96.30;;;;;;5072923;28;20040;-73
2022/12/29 04:25:06;;;;;;;3.42;1.00;;;14.10;96.40;;;;;;5060082;28;20055;-73
2022/12/29 04:27:33;;;;;;;4.65;0.93;;;14.20;96.20;;;;;;5061914;28;20036;-74
2022/12/29 04:29:58;;;;;;;;;;;14.10;96.30;;;;;;5065405;28;20048;-73
2022/12/29 04:32:24;;;;;;;4.65;1.15;;;14.10;96.30;;;;;;5060235;28;20305;-74
2022/12/29 04:34:50;;;;;;;7.05;1.15;;;14.10;96.30;;;;;;5060447;28;20059;-73
2022/12/29 04:37:16;;;;;;;5.85;1.30;;;14.10;96.20;;;;;;5064778;28;20451;-74
2022/12/29 04:39:42;;;;;;;3.50;1.00;;;14.10;96.20;;;;;;5065319;28;20037;-74
2022/12/29 04:42:08;;;;;;;5.15;1.00;;;14.00;96.20;;;;;;5066393;28;20059;-74
2022/12/29 04:44:35;;;;;;;3.67;0.63;;;14.10;96.10;;;;;;5061254;28;20061;-74
2022/12/29 04:47:02;;;;;;;4.55;0.82;;;14.00;96.10;;;;;;5064007;28;20064;-73
2022/12/29 04:49:28;;;;;;;;;;;14.00;96.10;;;;;;5074401;28;20032;-73
2022/12/29 04:51:54;;;;;;;5.30;1.23;;;13.90;96.20;;;;;;5084445;28;19913;-74
2022/12/29 04:54:20;;;;;;;5.93;1.25;;;13.90;96.20;;;;;;5076820;28;20567;-73
2022/12/29 04:56:46;;;;;;;4.63;0.93;;;13.90;96.30;;;;;;5090805;28;20087;-73
2022/12/29 04:59:11;;;;;;;3.42;1.00;;;14.00;96.20;;;;;;5083902;28;20036;-75
2022/12/29 05:01:39;;;;;;;5.22;0.75;;;14.10;96.10;;;;;;5080071;28;20032;-74
2022/12/29 05:04:04;;;;;;;4.07;1.00;;;14.00;96.10;;;;;;5081545;28;20036;-73
2022/12/29 05:06:30;;;;;;;7.35;1.42;;;14.10;96.00;;;;;;5079612;28;20927;-73
2022/12/29 05:08:56;;;;;;;5.55;0.82;;;14.20;96.10;;;;;;5080546;28;20508;-73
2022/12/29 05:11:22;;;;;;;5.90;0.90;;;14.10;96.10;;;;;;5066818;28;20083;-74
2022/12/29 05:13:47;;;;;;;3.13;1.40;;;14.00;96.40;;;;;;5060580;28;20056;-74
2022/12/29 05:16:13;;;;;;;4.07;0.90;;;14.10;96.20;;;;;;5061240;28;20541;-74
2022/12/29 05:18:39;;;;;;;6.93;1.67;;;14.00;96.30;;;;;;5044170;28;20435;-74
2022/12/29 05:21:05;;;;;;;4.70;0.93;;;14.00;96.50;;;;;;5059905;28;20041;-74
2022/12/29 05:23:31;;;;;;;4.68;1.30;;;14.00;96.50;;;;;;5085268;28;20725;-74
2022/12/29 05:25:56;;;;;;;5.53;1.45;;;13.90;96.60;;;;;;5064357;28;20035;-74
2022/12/29 05:28:22;;;;;;;5.80;1.30;;;13.80;96.70;;;;;;5070746;28;20044;-74
2022/12/29 05:30:51;;;;;;;4.78;1.17;;;13.90;96.80;;;;;;5091071;28;20047;-74
2022/12/29 05:33:19;;;;;;;5.18;1.10;;;13.80;96.90;;;;;;5063992;28;20051;-73
2022/12/29 05:35:45;;;;;;;5.32;1.15;;;13.80;97.00;;;;;;5070272;28;20041;-75
2022/12/29 05:38:11;;;;;;;4.55;1.25;;;13.80;97.10;;;;;;5063733;28;20033;-73
2022/12/29 05:40:36;;;;;;;6.53;1.52;;;13.70;97.30;;;;;;5060671;28;20518;-73
2022/12/29 05:43:02;;;;;;;6.85;1.30;;;13.70;97.30;;;;;;5055906;28;20117;-74
2022/12/29 05:45:28;;;;;;;7.28;1.40;;;13.80;97.10;;;;;;5051385;28;20127;-73
2022/12/29 05:47:54;;;;;;;7.28;1.70;;;13.70;97.20;;;;;;5061297;28;20116;-74
2022/12/29 05:50:20;;;;;;;9.85;1.48;;;13.60;97.30;;;;;;5062660;28;20039;-74
2022/12/29 05:52:46;;;;;;;4.93;1.40;;;13.70;97.10;;;;;;5065518;28;20048;-74
2022/12/29 05:55:12;;;;;;;4.53;1.35;;;13.70;97.10;;;;;;5061409;28;20032;-74
2022/12/29 05:57:37;;;;;;;4.20;0.77;;;13.70;97.10;;;;;;5061918;28;20047;-75
2022/12/29 06:00:05;;;;;;;9.73;1.55;;;13.80;96.90;;;;;;5062558;28;20121;-74
2022/12/29 06:02:30;;;;;;;5.65;1.38;;;13.70;97.10;;;;;;5070304;28;20488;-74
2022/12/29 06:04:56;;;;;;;4.65;1.05;;;13.70;97.10;;;;;;5064178;28;20040;-74
2022/12/29 06:07:22;;;;;;;5.13;1.20;;;13.70;96.90;;;;;;5064191;28;20159;-74
2022/12/29 06:09:48;;;;;;;6.45;1.33;;;13.60;97.20;;;;;;5063832;28;20040;-74
2022/12/29 06:12:14;;;;;;;9.32;2.00;;;13.50;97.40;;;;;;5062618;28;20067;-74
2022/12/29 06:14:40;;;;;;;4.75;1.23;;;13.30;97.60;;;;;;5060567;28;20040;-75
2022/12/29 06:17:06;;;;;;;2.55;1.00;;;13.20;97.70;;;;;;5063477;28;20036;-74
2022/12/29 06:19:32;;;;;;;7.20;1.13;;;13.40;97.40;;;;;;5047379;28;20042;-75
2022/12/29 06:21:58;;;;;;;5.25;1.10;;;13.40;97.40;;;;;;5094726;28;20032;-73
2022/12/29 06:24:24;;;;;;;8.43;0.88;;;13.40;97.40;;;;;;5064276;28;20040;-75
2022/12/29 06:26:51;;;;;;;3.85;1.10;;;13.60;97.20;;;;;;5076174;28;20039;-74
2022/12/29 06:29:17;;;;;;;3.38;0.90;;;13.60;97.20;;;;;;5080403;28;20086;-73
2022/12/29 06:31:46;;;;;;;5.43;1.33;;;13.60;97.00;;;;;;5094475;27;20036;-74
2022/12/29 06:34:12;;;;;;;6.70;1.30;;;13.70;97.00;;;;;;5093482;28;20105;-73
2022/12/29 06:36:39;;;;;;;3.35;1.10;;;13.60;97.10;;;;;;5065171;28;20160;-73
2022/12/29 06:39:05;;;;;;;6.75;1.50;;;13.60;97.00;;;;;;5060695;28;20037;-74
2022/12/29 06:41:31;;;;;;;6.25;1.70;;;13.60;97.00;;;;;;5094269;28;20052;-74
2022/12/29 06:43:57;;;;;;;4.25;0.70;;;13.60;97.10;;;;;;5062941;28;20038;-73
2022/12/29 06:46:23;;;;;;;6.57;1.75;;;13.60;97.10;;;;;;5060960;28;20040;-73
2022/12/29 06:48:49;;;;;;;5.57;1.05;;;13.50;97.20;;;;;;5062753;28;20135;-74
2022/12/29 06:51:15;;;;;;;5.93;1.55;;;13.50;97.20;;;;;;5055332;28;20106;-74
2022/12/29 06:53:41;;;;;;;4.20;1.10;;;13.50;97.20;;;;;;5057000;28;20029;-73
2022/12/29 06:56:07;;;;;;;8.82;1.38;;;13.50;97.20;;;;;;5060808;28;20040;-74
2022/12/29 06:58:33;;;;;;;4.57;0.82;;;13.50;97.20;;;;;;5055814;28;20091;-73
2022/12/29 07:00:59;;;;;;;4.30;0.90;;;13.60;97.20;;;;;;5073395;28;20554;-73
2022/12/29 07:03:25;;;;;;;6.20;1.00;;;13.60;97.20;;;;;;5074223;28;20655;-75
2022/12/29 07:05:54;;;;;;;6.65;1.20;;;13.60;97.20;;;;;;5066099;28;20383;-74
2022/12/29 07:08:20;;;;;;;5.38;0.95;;;13.60;97.20;;;;;;5068247;28;20048;-74
2022/12/29 07:10:46;;;;;;;4.90;1.40;;;13.80;97.10;;;;;;5062091;28;20069;-74
2022/12/29 07:13:12;;;;;;;4.82;1.45;;;13.80;97.10;;;;;;5060673;28;20032;-75
2022/12/29 07:15:38;;;;;;;4.10;1.20;;;13.70;97.10;;;;;;5072286;28;20108;-74
2022/12/29 07:18:04;;;;;;;6.38;1.10;;;13.80;97.10;;;;;;5060727;28;20045;-73
2022/12/29 07:20:31;;;;;;;5.85;0.82;;;13.80;97.20;;;;;;5061897;28;20040;-74
2022/12/29 07:22:57;;;;;;;8.27;1.27;;;13.80;97.10;;;;;;5059004;28;20090;-74
2022/12/29 07:25:23;;;;;;;5.18;1.13;;;13.80;97.10;;;;;;5080765;28;20051;-74
2022/12/29 07:27:49;;;;;;;5.97;1.38;;;13.80;97.10;;;;;;5066993;28;20041;-74
2022/12/29 07:30:16;;;;;;;4.82;1.08;;;13.70;97.00;;;;;;5046823;28;20041;-73
2022/12/29 07:32:41;;;;;;;5.25;1.10;;;13.80;97.20;;;;;;5051130;28;20321;-74
2022/12/29 07:35:08;;;;;;;5.90;1.27;;;13.80;96.90;;;;;;5067734;28;20051;-74
2022/12/29 07:37:34;;;;;;;6.63;1.45;;;13.90;96.90;;;;;;5061068;28;20431;-74
2022/12/29 07:40:03;;;;;;;4.88;1.10;;;13.90;97.00;;;;;;5039399;28;20128;-74
2022/12/29 07:42:29;;;;;;;5.32;1.23;;;14.00;96.90;;;;;;5071161;28;20055;-74
2022/12/29 07:44:55;;;;;;;6.60;1.30;;;14.00;96.90;;;;;;5094312;27;20667;-74
2022/12/29 07:47:20;;;;;;;8.40;1.30;;;14.00;96.80;;;;;;5061766;28;20040;-74
2022/12/29 07:49:47;;;;;;;6.07;1.15;;;14.10;97.00;;;;;;5062294;28;20096;-74
2022/12/29 07:52:13;;;;;;;8.02;1.48;;;14.20;96.90;;;;;;5061711;28;20033;-74
2022/12/29 07:54:38;;;;;;;4.18;1.23;;;14.20;96.70;;;;;;5049061;28;20033;-74
2022/12/29 07:57:06;;;;;;;9.48;1.30;;;14.20;96.60;;;;;;5079187;28;20071;-75
2022/12/29 07:59:32;;;;;;;7.60;1.23;;;14.30;96.60;;;;;;5063083;28;20090;-74
2022/12/29 08:01:58;;;;;;;7.38;1.25;;;14.30;96.60;;;;;;5071680;28;20032;-74
2022/12/29 08:04:24;;;;;;;5.00;1.15;;;14.40;96.60;;;;;;5079590;28;20035;-74
2022/12/29 08:06:50;;;;;;;4.43;1.20;;;14.40;96.50;;;;;;5062743;28;20032;-75
2022/12/29 08:09:16;;;;;;;4.55;1.20;;;14.50;96.50;;;;;;5061460;28;20118;-75
2022/12/29 08:11:43;;;;;;;4.80;0.88;;;14.40;96.50;;;;;;5065779;28;20036;-74
2022/12/29 08:14:10;;;;;;;5.50;1.10;;;14.40;96.60;;;;;;5063559;28;20050;-73
2022/12/29 08:16:36;;;;;;;6.07;1.35;;;14.40;96.60;;;;;;5069619;28;20065;-73
2022/12/29 08:19:04;;;;;;;7.55;1.42;;;14.50;96.60;;;;;;5056222;28;20144;-73
2022/12/29 08:21:30;;;;;;;6.75;1.60;;;14.50;96.50;;;;;;5058753;28;20068;-73
2022/12/29 08:23:57;;;;;;;9.65;1.25;;;14.50;96.60;;;;;;5057788;28;20034;-77
2022/12/29 08:26:24;;;;;;;7.45;1.20;;;14.40;96.50;;;;;;5056141;28;20029;-74
2022/12/29 08:28:53;;;;;;;5.22;1.00;;;14.40;96.50;;;;;;5059352;28;20036;-74
2022/12/29 08:31:18;;;;;;;6.32;1.30;;;14.40;96.50;;;;;;5060358;28;20040;-74
2022/12/29 08:33:44;;;;;;;5.85;1.40;;;14.50;96.60;;;;;;5057450;28;20539;-74
2022/12/29 08:36:10;;;;;;;6.78;1.02;;;14.60;96.40;;;;;;5056331;28;20127;-74
2022/12/29 08:38:36;;;;;;;6.25;1.50;;;14.70;96.20;;;;;;5057422;28;20499;-74
2022/12/29 08:41:02;;;;;;;7.80;1.20;;;14.80;96.30;;;;;;5087914;28;20129;-74
2022/12/29 08:43:29;;;;;;;9.70;1.75;;;14.70;96.20;;;;;;5061187;28;20036;-74
2022/12/29 08:46:04;;;;;;;6.45;1.63;;;14.70;96.30;;;;;;5078267;28;20040;-74
2022/12/29 08:48:30;;;;;;;4.30;1.30;;;14.60;96.20;;;;;;5078565;28;20039;-74
2022/12/29 08:50:56;;;;;;;5.70;1.25;;;14.70;96.20;;;;;;5089879;28;20107;-74
2022/12/29 08:53:22;;;;;;;10.27;1.40;;;14.80;96.20;;;;;;5067316;28;20066;-74
2022/12/29 08:55:58;;;;;;;7.78;1.15;;;14.80;96.10;;;;;;5059977;28;20032;-75
2022/12/29 08:58:25;;;;;;;9.55;1.58;;;14.80;96.10;;;;;;5053144;28;20044;-75
2022/12/29 09:00:52;;;;;;;;;;;14.80;96.00;;;;;;5055541;28;20037;-74
2022/12/29 09:03:18;;;;;;;10.15;1.40;;;14.90;96.10;;;;;;5055083;28;19916;-74
2022/12/29 09:05:49;;;;;;;6.82;1.80;;;14.90;96.00;;;;;;5059573;28;20377;-73
2022/12/29 09:08:15;;;;;;;6.25;2.00;;;15.00;96.00;;;;;;5067584;28;20840;-74
2022/12/29 09:10:40;;;;;;;5.13;1.50;;;15.10;95.90;;;;;;5070658;28;20318;-72
2022/12/29 09:13:06;;;;;;;6.07;1.17;;;15.20;95.70;;;;;;5074405;28;20040;-74
2022/12/29 09:15:32;;;;;;;5.47;1.23;;;15.50;95.60;;;;;;5072995;28;20059;-74
2022/12/29 09:17:58;;;;;;;8.48;1.35;;;15.50;95.30;;;;;;5071924;28;20040;-74
2022/12/29 09:20:24;;;;;;;6.43;1.80;;;15.50;95.30;;;;;;5073964;28;20108;-74
2022/12/29 09:22:49;;;;;;;2.90;1.08;;;15.40;95.40;;;;;;5086123;28;20025;-74
2022/12/29 09:25:16;;;;;;;5.15;1.40;;;15.20;95.50;;;;;;5080572;28;20093;-74
2022/12/29 09:27:43;;;;;;;5.55;1.15;;;15.00;95.70;;;;;;5081118;28;20074;-75
2022/12/29 09:30:11;;;;;;;5.30;1.20;;;14.80;95.90;;;;;;5062245;28;20039;-74
2022/12/29 09:32:37;;;;;;;6.25;1.67;;;14.80;96.00;;;;;;5086833;28;20498;-74
2022/12/29 09:35:04;;;;;;;3.78;1.20;;;14.70;96.20;;;;;;5078120;28;20033;-73
2022/12/29 09:37:29;;;;;;;5.13;1.13;;;14.70;96.10;;;;;;5078227;28;20375;-74
2022/12/29 09:39:55;;;;;;;6.85;1.15;;;14.70;96.20;;;;;;5092063;28;20028;-74
2022/12/29 09:42:32;;;;;;;7.85;1.90;;;14.70;96.20;;;;;;5077328;28;20083;-74
2022/12/29 09:45:16;;;;;;;4.25;1.27;;;14.80;96.20;;;;;;5082221;28;20040;-75
2022/12/29 09:47:44;;;;;;;4.85;1.20;;;14.80;96.20;;;;;;5074412;28;20079;-73
2022/12/29 09:50:29;;;;;;;8.27;1.70;;;15.00;96.10;;;;;;5078231;28;20075;-74
2022/12/29 09:53:12;;;;;;;5.53;1.30;;;15.20;95.90;;;;;;5080590;28;20526;-74
2022/12/29 09:55:59;;;;;;;3.95;1.33;;;15.30;96.10;;;;;;5072438;28;20439;-74
2022/12/29 09:58:44;;;;;;;5.80;1.13;;;15.70;95.50;;;;;;5071072;28;20036;-74
2022/12/29 10:01:41;;;;;;;10.25;1.60;;;16.60;94.90;;;;;;5076635;28;20035;-74
2022/12/29 10:04:07;;;;;;;7.43;2.15;;;17.10;94.00;;;;;;5080012;28;20399;-75
2022/12/29 10:06:35;;;;;;;5.25;1.83;;;17.10;94.00;;;;;;5080001;28;20081;-74
2022/12/29 10:09:28;;;;;;;5.90;1.40;;;17.00;94.00;;;;;;5070703;28;20506;-76
2022/12/29 10:12:16;;;;;;;6.30;1.48;;;17.00;94.00;;;;;;5045736;28;20044;-74
2022/12/29 10:14:45;;;;;;;5.45;1.50;;;16.70;94.20;;;;;;5089929;28;20060;-75
2022/12/29 10:17:25;;;;;;;5.18;1.30;;;17.00;94.30;;;;;;5077372;28;20032;-73
2022/12/29 10:20:39;;;;;;;6.10;1.50;;;17.20;94.00;;;;;;5066136;28;20121;-73
2022/12/29 10:23:33;;;;;;;4.97;1.45;;;17.50;94.00;;;;;;5084900;27;20029;-73
2022/12/29 10:26:03;;;;;;;6.70;1.50;;;16.90;94.10;;;;;;5074538;28;20036;-74
2022/12/29 10:28:42;;;;;;;10.60;2.20;;;16.80;94.60;;;;;;5076999;28;20042;-74
2022/12/29 10:31:20;;;;;;;5.50;1.23;;;16.60;94.50;;;;;;5080631;28;20040;-74
2022/12/29 10:33:51;;;;;;;8.30;1.60;;;16.40;94.60;;;;;;5076414;28;20505;-73
2022/12/29 10:36:24;;;;;;;7.30;1.50;;;16.40;94.70;;;;;;5093191;27;20072;-73
2022/12/29 10:39:14;;;;;;;5.20;1.40;;;16.40;94.80;;;;;;5086038;28;20037;-74
2022/12/29 10:42:03;;;;;;;6.03;1.33;;;17.10;94.40;;;;;;5075873;28;20036;-74
2022/12/29 10:44:31;;;;;;;4.30;1.38;;;18.00;93.70;;;;;;5069325;28;20107;-74
2022/12/29 10:47:04;;;;;;;6.32;1.85;;;17.70;93.90;;;;;;5078192;28;20032;-73
2022/12/29 10:49:32;;;;;;;;;;;18.30;93.40;;;;;;5081036;28;20049;-74
2022/12/29 10:52:01;;;;;;;6.05;1.92;;;18.80;93.00;;;;;;5076195;28;20007;-73
2022/12/29 10:54:48;;;;;;;7.95;1.92;;;19.30;92.50;;;;;;5053834;28;20079;-74
2022/12/29 10:57:45;;;;;;;8.98;1.90;;;18.80;92.40;;;;;;5074008;28;20062;-75
2022/12/29 11:00:22;;;;;;;6.22;1.45;;;18.90;92.70;;;;;;5076299;28;20116;-73
2022/12/29 11:03:12;;;;;;;7.18;1.95;;;19.10;92.60;;;;;;5078640;28;20032;-74
2022/12/29 11:05:49;;;;;;;10.30;2.10;;;18.90;92.60;;;;;;5072229;28;20059;-73
2022/12/29 11:08:19;;;;;;;8.18;1.70;;;19.30;92.50;;;;;;5050588;28;20067;-74
2022/12/29 11:10:56;;;;;;;6.90;1.63;;;19.40;92.10;;;;;;5081579;28;20821;-74
2022/12/29 11:13:33;;;;;;;8.55;2.33;;;19.20;92.60;;;;;;5063806;28;20098;-73
2022/12/29 11:16:02;;;;;;;7.32;2.10;;;19.70;92.70;;;;;;5069123;28;20029;-74
2022/12/29 11:18:42;;;;;;;6.88;1.98;;;20.70;91.70;;;;;;5094289;28;21155;-73
2022/12/29 11:21:25;;;;;;;7.53;2.13;;;20.40;91.50;;;;;;5064414;28;20585;-74
2022/12/29 11:24:05;;;;;;;6.72;2.08;;;20.70;91.30;;;;;;5062489;28;20689;-74
2022/12/29 11:26:33;;;;;;;5.82;2.00;;;21.00;91.40;;;;;;5080406;28;20036;-74
2022/12/29 11:29:08;;;;;;;6.95;1.73;;;21.80;90.80;;;;;;5067897;28;20040;-74
2022/12/29 11:32:11;;;;;;;11.68;2.40;;;22.40;90.30;;;;;;5072981;28;20071;-75
2022/12/29 11:34:37;;;;;;;10.00;2.10;;;21.90;90.10;;;;;;5028502;28;20059;-76
2022/12/29 11:37:25;;;;;;;9.98;1.92;;;20.10;91.20;;;;;;5058081;28;20043;-75
2022/12/29 11:40:05;;;;;;;4.65;1.50;;;19.20;91.90;;;;;;5080272;28;20043;-75
2022/12/29 11:42:51;;;;;;;6.88;2.22;;;21.00;91.00;;;;;;5057379;28;20044;-74
2022/12/29 11:45:22;;;;;;;8.02;2.15;;;20.70;90.50;;;;;;5059108;28;20124;-73
2022/12/29 11:47:51;;;;;;;9.52;2.60;;;21.30;90.80;;;;;;5052376;28;20076;-74
2022/12/29 11:50:21;;;;;;;8.82;2.22;;;22.20;90.30;;;;;;5084245;27;20465;-74
2022/12/29 11:52:50;;;;;;;8.30;1.73;;;21.90;90.00;;;;;;5081856;28;20025;-74
2022/12/29 11:55:23;;;;;;;7.97;2.33;;;23.20;89.50;;;;;;5045791;28;20048;-73
2022/12/29 11:57:52;;;;;;;10.98;2.05;;;22.30;89.20;;;;;;5077523;28;20364;-74
2022/12/29 12:00:27;;;;;;;11.15;2.28;;;22.00;89.70;;;;;;5071513;28;20027;-74
2022/12/29 12:02:56;;;;;;;5.93;2.08;;;20.90;90.70;;;;;;5077104;28;20040;-74
2022/12/29 12:05:36;;;;;;;6.85;1.77;;;21.00;90.70;;;;;;5067057;28;20040;-73
2022/12/29 12:08:08;;;;;;;6.82;2.50;;;20.80;90.60;;;;;;5061437;28;20127;-75
2022/12/29 12:10:50;;;;;;;12.73;2.88;;;21.30;90.40;;;;;;5065428;28;20036;-74
2022/12/29 12:13:38;;;;;;;6.88;2.00;;;21.60;90.30;;;;;;5061739;28;20047;-74
2022/12/29 12:16:12;;;;;;;8.65;2.08;;;21.80;90.00;;;;;;5055555;28;20487;-74
2022/12/29 12:19:09;;;;;;;7.45;1.95;;;21.80;89.60;;;;;;5059342;28;20121;-74
2022/12/29 12:21:40;;;;;;;11.77;3.10;;;22.80;89.00;;;;;;5076253;28;20032;-75
2022/12/29 12:24:37;;;;;;;22.55;3.08;;;22.50;89.50;;;;;;5066934;28;20055;-74
2022/12/29 12:27:29;;;;;;;8.00;2.13;;;22.20;88.80;;;;;;5071996;28;20047;-74
2022/12/29 12:30:07;;;;;;;9.88;2.80;;;21.80;89.90;;;;;;5056204;28;20037;-73
2022/12/29 12:32:43;;;;;;;9.85;1.98;;;20.70;90.60;;;;;;5057646;28;20036;-74
2022/12/29 12:35:44;;;;;;;5.30;1.88;;;20.90;91.00;;;;;;5056607;28;20032;-74
2022/12/29 12:38:38;;;;;;;7.93;1.98;;;20.50;91.10;;;;;;5087373;28;20479;-74
2022/12/29 12:41:16;;;;;;;6.80;2.05;;;21.30;90.70;;;;;;5087976;28;20040;-73
2022/12/29 12:43:57;;;;;;;5.20;1.50;;;20.90;90.80;;;;;;5082120;28;20044;-74
2022/12/29 12:46:57;;;;;;;5.35;1.63;;;20.40;91.00;;;;;;5091305;28;20044;-74
2022/12/29 12:49:46;;;;;;;10.90;2.10;;;20.00;91.40;;;;;;5061560;28;20072;-74
2022/12/29 12:52:43;;;;;;;7.93;2.20;;;19.90;92.00;;;;;;5065015;28;20038;-75
2022/12/29 12:55:27;;;;;;;9.68;1.95;;;19.70;91.90;;;;;;5075032;28;20140;-74
2022/12/29 12:57:58;;;;;;;;;;;20.70;91.40;;;;;;5098815;28;20055;-77
2022/12/29 13:00:24;;;;;;;;;;;21.60;91.00;;;;;;5075497;28;20390;-74
2022/12/29 13:03:26;;;;;;;6.65;1.65;;;23.00;90.10;;;;;;5080822;28;19916;-74
2022/12/29 13:06:18;;;;;;;7.25;2.10;;;23.10;89.40;;;;;;5054928;28;20094;-74
2022/12/29 13:09:03;;;;;;;12.77;2.25;;;23.80;88.50;;;;;;5075824;28;20126;-74
2022/12/29 13:11:49;;;;;;;7.97;1.70;;;23.70;88.10;;;;;;5074420;28;20037;-75
2022/12/29 13:14:42;;;;;;;8.98;2.17;;;22.40;89.70;;;;;;5067217;28;20044;-73
2022/12/29 13:17:39;;;;;;;8.20;2.08;;;21.00;90.70;;;;;;5072423;28;20040;-75
2022/12/29 13:20:10;;;;;;;6.97;2.13;;;20.90;91.50;;;;;;5075416;28;20032;-74
2022/12/29 13:22:54;;;;;;;5.63;2.22;;;21.80;90.80;;;;;;5090253;28;20056;-74
2022/12/29 13:25:49;;;;;;;8.95;2.42;;;21.60;90.70;;;;;;5050781;28;20044;-76
2022/12/29 13:28:28;;;;;;;6.60;1.88;;;21.10;91.40;;;;;;5073591;28;20054;-75
2022/12/29 13:30:59;;;;;;;;;;;20.00;91.90;;;;;;5054306;28;20125;-73
2022/12/29 13:34:00;;;;;;;10.27;1.48;;;20.00;92.50;;;;;;5056377;28;20287;-75
2022/12/29 13:36:29;;;;;;;6.45;1.80;;;19.70;92.60;;;;;;5055058;28;20028;-74
2022/12/29 13:39:21;;;;;;;6.13;1.98;;;19.40;92.90;;;;;;5077570;28;20103;-74
2022/12/29 13:41:55;;;;;;;7.30;1.77;;;19.50;93.20;;;;;;5078887;28;20028;-75
2022/12/29 13:44:28;;;;;;;8.85;2.13;;;19.50;93.00;;;;;;5066473;28;20036;-73
2022/12/29 13:46:57;;;;;;;6.45;2.00;;;19.60;93.20;;;;;;5075716;28;20070;-75
2022/12/29 13:49:24;;;;;;;8.32;2.15;;;19.50;93.10;;;;;;5076572;28;20067;-75
2022/12/29 13:52:04;;;;;;;5.70;1.70;;;19.20;93.30;;;;;;5080954;28;20040;-74